Time;durP1;ratioP1;P1;durP2;ratioP2;P2;SDS_P1;SDS_P2;PMS_P1;PMS_P2;Temp;Humidity;BMP_temperature;BMP_pressure;BME280_temperature;BME280_humidity;BME280_pressure;Samples;Min_cycle;Max_cycle;Signal;HPM_P1;HPM_P2
2022/03/16 00:02:20;;;;;;;138.68;53.13;;;3.70;99.90;;;;;;4960776;28;20027;-83
2022/03/16 00:04:50;;;;;;;156.25;51.30;;;3.70;99.90;;;;;;4976979;28;20120;-83
2022/03/16 00:07:16;;;;;;;147.02;51.33;;;3.70;99.90;;;;;;4960550;28;20039;-83
2022/03/16 00:09:43;;;;;;;147.60;50.65;;;3.60;99.90;;;;;;4976708;28;20110;-83
2022/03/16 00:12:09;;;;;;;151.55;52.20;;;3.50;99.90;;;;;;4960879;28;20497;-83
2022/03/16 00:14:36;;;;;;;146.20;49.55;;;3.40;99.90;;;;;;4992356;28;20038;-83
2022/03/16 00:17:03;;;;;;;144.60;49.63;;;3.30;99.90;;;;;;4991975;28;20049;-82
2022/03/16 00:19:28;;;;;;;149.20;51.85;;;3.20;99.90;;;;;;4960871;28;20036;-83
2022/03/16 00:21:56;;;;;;;143.50;48.72;;;3.20;99.90;;;;;;4960565;28;20113;-83
2022/03/16 00:24:21;;;;;;;152.00;50.00;;;3.20;99.90;;;;;;4976905;28;20038;-83
2022/03/16 00:26:47;;;;;;;146.85;48.45;;;3.20;99.90;;;;;;4993861;28;20046;-83
2022/03/16 00:29:13;;;;;;;149.20;50.70;;;3.10;99.90;;;;;;4976615;28;20038;-83
2022/03/16 00:31:38;;;;;;;159.75;51.45;;;3.10;99.90;;;;;;4992727;28;20085;-83
2022/03/16 00:34:04;;;;;;;158.35;50.65;;;3.20;99.90;;;;;;4993547;28;20040;-83
2022/03/16 00:36:30;;;;;;;159.23;50.83;;;3.20;99.90;;;;;;4992580;28;20038;-83
2022/03/16 00:38:55;;;;;;;162.30;52.00;;;3.20;99.90;;;;;;4992120;28;20053;-83
2022/03/16 00:41:21;;;;;;;163.05;53.63;;;3.20;99.90;;;;;;4960122;28;20029;-83
2022/03/16 00:43:47;;;;;;;140.60;50.88;;;3.20;99.90;;;;;;4992378;28;20034;-83
2022/03/16 00:46:13;;;;;;;157.07;52.83;;;3.10;99.90;;;;;;4960282;28;20661;-83
2022/03/16 00:48:39;;;;;;;166.38;55.58;;;3.10;99.90;;;;;;4959705;28;20034;-83
2022/03/16 00:51:05;;;;;;;173.50;55.03;;;3.10;99.90;;;;;;4992101;28;20056;-84
2022/03/16 00:53:33;;;;;;;178.00;53.97;;;3.10;99.90;;;;;;4959701;28;20042;-83
2022/03/16 00:55:59;;;;;;;169.82;54.38;;;3.00;99.90;;;;;;4991482;28;20113;-83
2022/03/16 00:58:25;;;;;;;184.43;56.25;;;2.90;99.90;;;;;;4975776;28;20117;-83
2022/03/16 01:00:50;;;;;;;167.45;54.13;;;2.70;99.90;;;;;;4992043;28;20093;-83
2022/03/16 01:03:28;;;;;;;177.43;53.38;;;2.60;99.90;;;;;;4959890;28;20026;-83
2022/03/16 01:05:53;;;;;;;159.52;50.35;;;2.40;99.90;;;;;;4959819;28;20085;-83
2022/03/16 01:08:21;;;;;;;158.73;51.20;;;2.30;99.90;;;;;;4959739;28;20195;-83
2022/03/16 01:10:47;;;;;;;154.90;50.10;;;2.10;99.90;;;;;;4960039;28;20041;-83
2022/03/16 01:13:13;;;;;;;175.30;50.63;;;2.10;99.90;;;;;;4959852;28;20061;-83
2022/03/16 01:15:40;;;;;;;175.38;52.78;;;2.00;99.90;;;;;;4991849;28;20053;-83
2022/03/16 01:18:06;;;;;;;179.32;54.10;;;1.90;99.90;;;;;;4991538;28;20125;-83
2022/03/16 01:20:31;;;;;;;200.23;54.97;;;1.90;99.90;;;;;;4992037;28;20030;-83
2022/03/16 01:22:57;;;;;;;178.32;53.67;;;1.80;99.90;;;;;;4959757;28;20027;-83
2022/03/16 01:25:23;;;;;;;179.57;54.08;;;1.70;99.90;;;;;;4976035;28;20499;-83
2022/03/16 01:27:49;;;;;;;172.80;51.47;;;1.60;99.90;;;;;;4994418;28;20133;-83
2022/03/16 01:30:15;;;;;;;176.93;51.88;;;1.60;99.90;;;;;;4963274;28;20069;-83
2022/03/16 01:32:41;;;;;;;187.00;54.88;;;1.50;99.90;;;;;;4996662;28;20062;-83
2022/03/16 01:35:09;;;;;;;178.55;53.13;;;1.50;99.90;;;;;;4978801;28;20053;-83
2022/03/16 01:37:35;;;;;;;182.23;52.08;;;1.60;99.90;;;;;;4996738;28;20023;-83
2022/03/16 01:40:02;;;;;;;168.68;50.75;;;1.50;99.90;;;;;;4963473;28;20034;-83
2022/03/16 01:42:29;;;;;;;168.52;51.75;;;1.40;99.90;;;;;;4979766;28;20581;-83
2022/03/16 01:44:57;;;;;;;164.60;50.22;;;1.40;99.90;;;;;;4996876;28;20026;-83
2022/03/16 01:47:24;;;;;;;165.20;51.83;;;1.30;99.90;;;;;;4979195;28;20030;-83
2022/03/16 01:49:52;;;;;;;174.45;51.80;;;1.30;99.90;;;;;;4995503;28;20460;-83
2022/03/16 01:52:26;;;;;;;187.80;52.83;;;1.20;99.90;;;;;;4963422;28;20085;-83
2022/03/16 01:54:52;;;;;;;169.68;52.70;;;1.10;99.90;;;;;;4979219;28;20030;-83
2022/03/16 01:57:18;;;;;;;186.57;56.95;;;1.10;99.90;;;;;;4962956;28;20029;-83
2022/03/16 01:59:45;;;;;;;181.05;57.35;;;1.30;99.90;;;;;;4963189;28;20030;-83
2022/03/16 02:02:11;;;;;;;184.80;57.67;;;1.30;99.90;;;;;;4962873;28;20038;-83
2022/03/16 02:04:38;;;;;;;184.82;57.25;;;1.40;99.90;;;;;;4995286;28;20121;-83
2022/03/16 02:07:04;;;;;;;186.32;56.70;;;1.40;99.90;;;;;;4962519;28;20405;-83
2022/03/16 02:09:30;;;;;;;187.80;60.40;;;1.30;99.90;;;;;;4978204;28;20038;-83
2022/03/16 02:11:56;;;;;;;215.82;62.88;;;1.30;99.90;;;;;;4995618;28;20034;-83
2022/03/16 02:14:22;;;;;;;229.30;62.30;;;1.30;99.90;;;;;;4962253;28;20034;-83
2022/03/16 02:16:48;;;;;;;207.05;58.05;;;1.20;99.90;;;;;;4994624;28;20035;-83
2022/03/16 02:19:15;;;;;;;191.40;54.00;;;1.30;99.90;;;;;;4978755;28;20035;-83
2022/03/16 02:21:44;;;;;;;176.60;55.55;;;1.20;99.90;;;;;;4962389;28;20034;-83
2022/03/16 02:24:10;;;;;;;181.35;53.72;;;1.20;99.90;;;;;;4978410;28;20097;-82
2022/03/16 02:26:36;;;;;;;189.30;54.78;;;1.20;99.90;;;;;;4994590;28;20465;-83
2022/03/16 02:29:02;;;;;;;189.30;54.85;;;1.10;99.90;;;;;;4978752;28;20792;-83
2022/03/16 02:31:28;;;;;;;177.40;54.70;;;1.00;99.90;;;;;;4962815;28;20030;-83
2022/03/16 02:33:54;;;;;;;185.98;58.35;;;1.00;99.90;;;;;;4995040;28;20042;-83
2022/03/16 02:36:20;;;;;;;192.32;57.40;;;1.10;99.90;;;;;;4995023;28;20030;-83
2022/03/16 02:38:46;;;;;;;215.40;60.17;;;1.10;99.90;;;;;;4994123;28;20034;-83
2022/03/16 02:41:12;;;;;;;197.38;59.17;;;1.30;99.90;;;;;;4996085;28;20758;-83
2022/03/16 02:43:39;;;;;;;211.07;62.58;;;1.30;99.90;;;;;;4978291;28;20149;-83
2022/03/16 02:46:05;;;;;;;215.38;62.30;;;1.40;99.90;;;;;;4962309;28;20045;-83
2022/03/16 02:48:31;;;;;;;221.45;62.08;;;1.50;99.90;;;;;;4978110;28;20030;-83
2022/03/16 02:50:57;;;;;;;195.30;59.45;;;1.60;99.90;;;;;;4961471;28;20030;-82
2022/03/16 02:53:23;;;;;;;188.23;59.63;;;1.50;99.90;;;;;;4961987;28;20026;-83
2022/03/16 02:55:49;;;;;;;215.57;62.17;;;1.50;99.90;;;;;;4961860;28;20031;-83
2022/03/16 02:58:16;;;;;;;207.20;59.00;;;1.50;99.90;;;;;;4995344;28;20026;-83
2022/03/16 03:00:43;;;;;;;218.93;63.38;;;1.50;99.90;;;;;;4995466;28;20034;-82
2022/03/16 03:03:08;;;;;;;201.18;60.25;;;1.50;99.90;;;;;;4961873;28;20410;-83
2022/03/16 03:05:47;;;;;;;237.77;63.97;;;1.50;99.90;;;;;;4978098;28;20030;-83
2022/03/16 03:08:13;;;;;;;216.05;61.03;;;1.60;99.90;;;;;;4961695;28;20730;-83
2022/03/16 03:10:39;;;;;;;228.43;64.50;;;1.60;99.90;;;;;;4993979;28;20054;-83
2022/03/16 03:13:05;;;;;;;219.82;60.58;;;1.80;99.90;;;;;;4977841;28;20030;-82
2022/03/16 03:15:31;;;;;;;242.77;65.28;;;1.80;99.90;;;;;;4961218;28;20393;-83
2022/03/16 03:17:57;;;;;;;223.00;61.42;;;1.90;99.90;;;;;;4993595;28;20113;-83
2022/03/16 03:20:22;;;;;;;209.95;59.47;;;1.90;99.90;;;;;;4993618;28;20133;-83
2022/03/16 03:22:48;;;;;;;225.90;61.95;;;1.90;99.90;;;;;;4993829;28;20489;-83
2022/03/16 03:25:15;;;;;;;232.27;62.15;;;1.90;99.90;;;;;;4961368;28;20133;-83
2022/03/16 03:27:41;;;;;;;220.80;60.78;;;1.90;99.90;;;;;;4994280;28;20040;-82
2022/03/16 03:30:08;;;;;;;210.77;59.85;;;1.90;99.90;;;;;;4995173;28;20034;-83
2022/03/16 03:32:33;;;;;;;233.57;60.33;;;1.90;99.90;;;;;;4961594;28;20121;-83
2022/03/16 03:34:59;;;;;;;233.02;59.10;;;1.90;99.90;;;;;;4993576;28;20145;-83
2022/03/16 03:37:27;;;;;;;218.15;59.20;;;1.80;99.90;;;;;;4994566;28;20033;-84
2022/03/16 03:39:53;;;;;;;209.00;57.10;;;1.80;99.90;;;;;;4977323;28;20811;-83
2022/03/16 03:42:19;;;;;;;230.73;60.78;;;1.80;99.90;;;;;;4993716;28;20101;-83
2022/03/16 03:44:45;;;;;;;238.85;59.47;;;1.90;99.90;;;;;;4961309;28;20022;-83
2022/03/16 03:47:11;;;;;;;224.85;59.08;;;1.80;99.90;;;;;;4977045;28;20042;-83
2022/03/16 03:49:39;;;;;;;227.30;56.65;;;1.90;99.90;;;;;;4976653;28;20031;-83
2022/03/16 03:52:05;;;;;;;204.32;54.63;;;1.90;99.90;;;;;;4960945;28;20042;-83
2022/03/16 03:54:31;;;;;;;233.05;60.65;;;2.00;99.90;;;;;;4976956;28;20038;-83
2022/03/16 03:56:57;;;;;;;241.35;58.20;;;2.00;99.90;;;;;;4994346;28;20065;-83
2022/03/16 03:59:23;;;;;;;251.98;61.65;;;1.90;99.90;;;;;;4961085;28;20037;-82
2022/03/16 04:01:50;;;;;;;244.48;59.97;;;2.00;99.90;;;;;;4961035;28;20394;-83
2022/03/16 04:04:16;;;;;;;264.55;61.45;;;2.00;99.90;;;;;;4992865;28;20129;-83
2022/03/16 04:06:42;;;;;;;263.55;64.22;;;2.00;99.90;;;;;;4993999;28;20068;-83
2022/03/16 04:09:07;;;;;;;267.85;64.28;;;2.00;99.90;;;;;;4960404;28;20862;-82
2022/03/16 04:11:33;;;;;;;264.35;61.08;;;2.00;99.90;;;;;;4994100;28;20034;-83
2022/03/16 04:13:59;;;;;;;240.80;62.83;;;2.00;99.90;;;;;;4976549;28;20042;-83
2022/03/16 04:16:25;;;;;;;276.27;64.68;;;2.00;99.90;;;;;;4960644;28;20041;-83
2022/03/16 04:18:51;;;;;;;264.73;63.20;;;2.10;99.90;;;;;;4992628;28;20031;-83
2022/03/16 04:21:17;;;;;;;257.13;62.88;;;2.10;99.90;;;;;;4993846;28;20072;-83
2022/03/16 04:23:43;;;;;;;257.75;62.50;;;2.00;99.90;;;;;;4993642;28;20097;-83
2022/03/16 04:26:08;;;;;;;279.85;66.88;;;2.00;99.90;;;;;;4976208;28;20038;-83
2022/03/16 04:28:34;;;;;;;265.27;62.88;;;2.10;99.90;;;;;;4959654;28;20034;-83
2022/03/16 04:31:01;;;;;;;279.63;63.20;;;2.00;99.90;;;;;;4960274;28;20394;-82
2022/03/16 04:33:28;;;;;;;298.27;67.00;;;2.10;99.90;;;;;;4960211;28;20037;-83
2022/03/16 04:35:54;;;;;;;266.50;65.18;;;2.10;99.90;;;;;;4993696;28;20089;-83
2022/03/16 04:38:19;;;;;;;278.45;65.40;;;2.00;99.90;;;;;;4975843;28;20026;-83
2022/03/16 04:40:46;;;;;;;250.90;61.35;;;2.00;99.90;;;;;;4975879;28;20030;-83
2022/03/16 04:43:12;;;;;;;286.30;64.47;;;2.00;99.90;;;;;;4991754;28;20037;-82
2022/03/16 04:45:39;;;;;;;267.67;63.42;;;2.00;99.90;;;;;;4976214;28;20446;-83
2022/03/16 04:48:09;;;;;;;261.05;60.75;;;2.10;99.90;;;;;;4992307;28;20031;-83
2022/03/16 04:50:39;;;;;;;244.82;60.45;;;2.10;99.90;;;;;;4959710;28;20038;-83
2022/03/16 04:53:05;;;;;;;275.83;63.20;;;2.10;99.90;;;;;;4992089;28;20038;-83
2022/03/16 04:55:30;;;;;;;265.40;64.18;;;2.10;99.90;;;;;;4975922;28;20057;-83
2022/03/16 04:57:57;;;;;;;286.95;67.20;;;2.10;99.90;;;;;;4975963;28;20022;-83
2022/03/16 05:00:24;;;;;;;273.55;63.30;;;2.20;99.90;;;;;;4991877;28;20026;-83
2022/03/16 05:02:50;;;;;;;252.63;60.55;;;2.20;99.90;;;;;;4959068;28;20026;-82
2022/03/16 05:05:18;;;;;;;271.88;63.63;;;2.20;99.90;;;;;;4959608;28;20508;-83
2022/03/16 05:07:44;;;;;;;256.30;63.22;;;2.30;99.90;;;;;;4959469;28;20038;-83
2022/03/16 05:10:11;;;;;;;272.35;66.35;;;2.30;99.90;;;;;;4959008;28;20123;-83
2022/03/16 05:12:42;;;;;;;269.35;64.28;;;2.30;99.90;;;;;;4991629;28;20091;-82
2022/03/16 05:15:12;;;;;;;264.08;63.67;;;2.30;99.90;;;;;;4991918;28;20038;-82
2022/03/16 05:17:38;;;;;;;290.38;65.00;;;2.30;99.90;;;;;;4959206;28;20027;-83
2022/03/16 05:20:05;;;;;;;272.52;64.45;;;2.30;99.90;;;;;;4958826;28;20034;-82
2022/03/16 05:22:31;;;;;;;291.92;66.05;;;2.30;99.90;;;;;;4975402;28;20081;-82
2022/03/16 05:24:57;;;;;;;285.00;65.75;;;2.30;99.90;;;;;;4959206;28;20042;-82
2022/03/16 05:27:22;;;;;;;279.33;65.28;;;2.30;99.90;;;;;;4959051;28;20703;-82
2022/03/16 05:29:48;;;;;;;281.35;64.78;;;2.30;99.90;;;;;;4959228;28;20038;-82
2022/03/16 05:32:15;;;;;;;288.13;66.97;;;2.30;99.90;;;;;;4959299;28;20041;-83
2022/03/16 05:34:40;;;;;;;276.10;65.00;;;2.30;99.90;;;;;;4992817;28;20066;-83
2022/03/16 05:37:07;;;;;;;263.52;64.38;;;2.20;99.90;;;;;;4975266;28;20057;-82
2022/03/16 05:39:33;;;;;;;255.00;64.88;;;2.20;99.90;;;;;;4991707;28;20547;-85
2022/03/16 05:42:00;;;;;;;262.70;63.88;;;2.10;99.90;;;;;;4959640;28;20117;-86
2022/03/16 05:44:26;;;;;;;278.73;67.00;;;2.10;99.90;;;;;;4959719;28;20042;-85
2022/03/16 05:46:54;;;;;;;266.25;62.47;;;2.10;99.90;;;;;;4959696;28;20437;-85
2022/03/16 05:49:22;;;;;;;259.80;63.63;;;2.10;99.90;;;;;;4960059;28;20504;-86
2022/03/16 05:51:48;;;;;;;282.80;68.85;;;2.10;99.90;;;;;;4959605;28;20092;-86
2022/03/16 05:54:13;;;;;;;285.85;66.70;;;2.10;99.90;;;;;;4993263;28;20035;-85
2022/03/16 05:56:39;;;;;;;253.93;62.28;;;2.20;99.90;;;;;;4976054;28;20429;-86
2022/03/16 05:59:05;;;;;;;281.63;69.25;;;2.20;99.90;;;;;;4992547;28;20065;-85
2022/03/16 06:01:30;;;;;;;266.08;69.20;;;2.30;99.90;;;;;;4959840;28;20065;-87
2022/03/16 06:03:56;;;;;;;282.98;71.95;;;2.30;99.90;;;;;;4992926;28;20037;-86
2022/03/16 06:06:33;;;;;;;282.55;68.45;;;2.40;99.90;;;;;;4959248;28;20031;-85
2022/03/16 06:08:59;;;;;;;257.80;64.63;;;2.50;99.90;;;;;;4959571;28;20038;-86
2022/03/16 06:11:25;;;;;;;260.73;67.50;;;2.50;99.90;;;;;;4992207;28;20440;-86
2022/03/16 06:13:50;;;;;;;262.55;66.90;;;2.60;99.90;;;;;;4995466;28;20054;-86
2022/03/16 06:16:16;;;;;;;263.92;67.03;;;2.60;99.90;;;;;;4963261;28;20129;-86
2022/03/16 06:18:42;;;;;;;257.23;65.20;;;2.70;99.90;;;;;;4962926;28;20649;-86
2022/03/16 06:21:08;;;;;;;250.38;65.57;;;2.70;99.90;;;;;;4979131;28;20053;-86
2022/03/16 06:23:35;;;;;;;239.52;64.57;;;2.80;99.90;;;;;;4995424;28;20027;-87
2022/03/16 06:26:04;;;;;;;262.00;63.78;;;2.80;99.90;;;;;;4995068;28;20201;-86
2022/03/16 06:28:31;;;;;;;255.23;63.95;;;2.80;99.90;;;;;;4962563;28;20092;-86
2022/03/16 06:30:57;;;;;;;259.10;64.80;;;2.90;99.90;;;;;;4962875;28;20172;-87
2022/03/16 06:33:23;;;;;;;243.80;62.38;;;2.90;99.90;;;;;;4962945;28;20125;-85
2022/03/16 06:35:49;;;;;;;265.02;64.25;;;2.90;99.90;;;;;;4962741;28;20038;-86
2022/03/16 06:38:15;;;;;;;255.07;63.38;;;2.90;99.90;;;;;;4961970;28;20454;-86
2022/03/16 06:40:40;;;;;;;263.42;67.43;;;3.00;99.90;;;;;;4996164;28;20255;-87
2022/03/16 06:43:06;;;;;;;237.45;63.13;;;3.00;99.90;;;;;;4962482;28;20026;-87
2022/03/16 06:45:51;;;;;;;232.55;63.53;;;3.10;99.90;;;;;;4994747;28;20129;-87
2022/03/16 06:48:21;;;;;;;220.05;63.58;;;3.20;99.90;;;;;;4978364;28;20105;-86
2022/03/16 06:50:47;;;;;;;228.70;61.65;;;3.20;99.90;;;;;;4994717;28;20031;-86
2022/03/16 06:53:12;;;;;;;238.02;61.72;;;3.20;99.90;;;;;;4994999;28;20030;-87
2022/03/16 06:55:38;;;;;;;220.07;61.08;;;3.30;99.90;;;;;;4962451;28;20795;-85
2022/03/16 06:58:04;;;;;;;217.90;60.50;;;3.30;99.90;;;;;;4962314;28;20054;-87
2022/03/16 07:00:30;;;;;;;211.13;61.10;;;3.40;99.90;;;;;;4994770;28;20030;-87
2022/03/16 07:03:05;;;;;;;215.00;61.53;;;3.40;99.90;;;;;;4994477;28;20061;-87
2022/03/16 07:05:38;;;;;;;216.10;62.30;;;3.40;99.90;;;;;;4965422;28;20038;-87
2022/03/16 07:08:10;;;;;;;200.40;58.22;;;3.50;99.90;;;;;;4979836;28;20037;-87
2022/03/16 07:10:38;;;;;;;196.85;58.95;;;3.50;99.90;;;;;;4994751;28;20038;-87
2022/03/16 07:13:04;;;;;;;189.82;58.22;;;3.50;99.90;;;;;;4995051;28;20359;-87
2022/03/16 07:15:32;;;;;;;194.52;59.00;;;3.50;99.90;;;;;;4977946;28;20045;-87
2022/03/16 07:17:58;;;;;;;194.85;59.30;;;3.50;99.90;;;;;;4961970;28;20406;-87
2022/03/16 07:20:29;;;;;;;202.45;59.40;;;3.60;99.90;;;;;;4977797;28;20133;-87
2022/03/16 07:23:15;;;;;;;175.98;54.55;;;3.60;99.90;;;;;;4994645;28;20049;-87
2022/03/16 07:25:43;;;;;;;185.18;60.92;;;3.70;99.90;;;;;;4961224;28;20042;-86
2022/03/16 07:28:10;;;;;;;179.85;59.30;;;3.70;99.90;;;;;;4961744;28;20034;-87
2022/03/16 07:30:37;;;;;;;167.43;57.00;;;3.80;99.90;;;;;;4962006;28;20125;-87
2022/03/16 07:33:13;;;;;;;180.80;56.40;;;3.80;99.90;;;;;;4962071;28;20038;-88
2022/03/16 07:35:39;;;;;;;160.45;53.45;;;3.90;99.90;;;;;;4962129;28;20104;-87
2022/03/16 07:38:06;;;;;;;155.15;52.55;;;3.90;99.90;;;;;;4962036;28;20774;-87
2022/03/16 07:40:35;;;;;;;146.73;54.13;;;3.90;99.90;;;;;;4977705;28;20030;-87
2022/03/16 07:43:04;;;;;;;154.57;52.10;;;4.00;99.90;;;;;;4961920;28;20058;-88
2022/03/16 07:45:29;;;;;;;143.43;52.30;;;4.10;99.90;;;;;;4981297;28;20092;-87
2022/03/16 07:47:59;;;;;;;135.15;50.45;;;4.10;99.90;;;;;;4961604;28;20027;-87
2022/03/16 07:50:26;;;;;;;133.13;48.70;;;4.20;99.90;;;;;;4977921;28;20030;-87
2022/03/16 07:52:53;;;;;;;118.93;47.05;;;4.20;99.90;;;;;;4995191;28;20046;-87
2022/03/16 07:55:19;;;;;;;130.63;49.45;;;4.20;99.90;;;;;;4977930;28;20552;-87
2022/03/16 07:57:44;;;;;;;120.85;44.78;;;4.30;99.90;;;;;;4961338;28;20121;-87
2022/03/16 08:00:12;;;;;;;111.20;46.10;;;4.40;99.90;;;;;;4993456;28;20060;-87
2022/03/16 08:02:39;;;;;;;100.47;44.22;;;4.40;99.90;;;;;;4977357;28;20397;-87
2022/03/16 08:05:06;;;;;;;97.13;41.50;;;4.40;99.90;;;;;;4961286;28;20076;-87
2022/03/16 08:07:32;;;;;;;94.57;41.92;;;4.50;99.90;;;;;;4977266;28;20038;-87
2022/03/16 08:09:58;;;;;;;88.55;39.33;;;4.70;99.90;;;;;;4993961;28;20057;-87
2022/03/16 08:12:25;;;;;;;85.30;39.05;;;4.80;99.90;;;;;;4993738;28;20038;-87
2022/03/16 08:14:51;;;;;;;87.15;40.53;;;4.90;99.90;;;;;;4978169;28;20042;-86
2022/03/16 08:17:17;;;;;;;81.28;37.60;;;5.00;99.90;;;;;;4994520;28;20085;-87
2022/03/16 08:19:43;;;;;;;78.25;38.10;;;5.10;99.90;;;;;;4962358;28;20044;-87
2022/03/16 08:22:09;;;;;;;67.80;34.72;;;5.20;99.90;;;;;;4961876;28;20499;-86
2022/03/16 08:24:37;;;;;;;68.03;34.05;;;5.10;99.90;;;;;;4962345;28;20034;-87
2022/03/16 08:27:03;;;;;;;65.72;32.70;;;5.10;99.90;;;;;;4964376;28;20096;-86
2022/03/16 08:29:29;;;;;;;66.97;34.08;;;5.10;99.90;;;;;;4977843;28;20027;-87
2022/03/16 08:31:57;;;;;;;63.25;32.38;;;5.20;99.90;;;;;;4993619;28;20042;-87
2022/03/16 08:34:23;;;;;;;65.38;31.77;;;5.30;99.90;;;;;;4963210;28;20085;-87
2022/03/16 08:36:51;;;;;;;62.22;33.22;;;5.40;99.90;;;;;;4977366;28;20414;-86
2022/03/16 08:39:17;;;;;;;60.63;31.17;;;5.30;99.90;;;;;;4977395;28;20029;-87
2022/03/16 08:41:42;;;;;;;64.65;34.00;;;5.40;99.90;;;;;;4977347;28;20034;-86
2022/03/16 08:44:08;;;;;;;61.53;32.10;;;5.60;99.90;;;;;;4993119;28;20462;-86
2022/03/16 08:46:34;;;;;;;57.30;30.45;;;5.80;99.90;;;;;;4993926;28;20062;-87
2022/03/16 08:49:00;;;;;;;56.88;31.85;;;5.80;99.90;;;;;;4994136;28;20041;-87
2022/03/16 08:51:25;;;;;;;61.53;31.42;;;6.00;99.90;;;;;;4994084;28;20038;-86
2022/03/16 08:53:51;;;;;;;52.20;30.13;;;6.20;99.90;;;;;;4960557;28;20030;-87
2022/03/16 08:56:17;;;;;;;55.70;30.70;;;6.40;99.90;;;;;;4992863;28;20031;-86
2022/03/16 08:58:43;;;;;;;47.03;27.17;;;6.70;99.90;;;;;;4992809;28;20035;-87
2022/03/16 09:01:09;;;;;;;42.35;26.05;;;6.90;99.90;;;;;;4960633;28;20073;-86
2022/03/16 09:03:35;;;;;;;35.55;22.73;;;7.80;99.90;;;;;;4992747;28;20030;-87
2022/03/16 09:06:02;;;;;;;35.65;22.25;;;8.20;99.90;;;;;;4994736;28;20073;-86
2022/03/16 09:08:29;;;;;;;37.35;24.08;;;8.20;99.90;;;;;;4960833;28;20389;-87
2022/03/16 09:10:57;;;;;;;35.95;21.75;;;8.20;99.90;;;;;;4960648;28;20038;-86
2022/03/16 09:13:23;;;;;;;36.88;23.67;;;8.20;99.90;;;;;;4992922;28;20034;-87
2022/03/16 09:15:51;;;;;;;37.53;22.80;;;8.30;99.90;;;;;;4976594;28;20033;-87
2022/03/16 09:18:18;;;;;;;41.03;25.20;;;7.90;99.90;;;;;;4992488;28;20095;-87
2022/03/16 09:20:44;;;;;;;33.67;21.63;;;8.10;99.90;;;;;;4960158;28;20062;-86
2022/03/16 09:23:10;;;;;;;41.05;24.60;;;8.30;99.90;;;;;;4976706;28;20067;-86
2022/03/16 09:25:36;;;;;;;36.03;22.42;;;8.40;99.90;;;;;;4960495;28;20038;-87
2022/03/16 09:28:02;;;;;;;36.03;22.85;;;8.50;99.90;;;;;;4960020;28;20034;-88
2022/03/16 09:30:28;;;;;;;35.40;22.90;;;8.50;99.90;;;;;;4994280;28;20069;-90
2022/03/16 09:32:57;;;;;;;33.90;22.30;;;8.60;99.90;;;;;;4995049;28;20311;-90
2022/03/16 09:35:24;;;;;;;33.40;21.67;;;8.70;99.90;;;;;;4993604;28;20034;-89
2022/03/16 09:37:50;;;;;;;33.50;21.67;;;8.90;99.90;;;;;;4993366;28;20033;-91
2022/03/16 09:40:17;;;;;;;31.58;21.67;;;9.10;99.90;;;;;;4994147;28;20041;-89
2022/03/16 09:42:45;;;;;;;30.38;20.67;;;8.90;99.90;;;;;;4961511;28;20133;-89
2022/03/16 09:45:17;;;;;;;32.78;22.35;;;9.20;99.90;;;;;;4962370;28;20129;-90
2022/03/16 09:47:44;;;;;;;30.10;19.85;;;9.30;99.90;;;;;;4996014;28;20122;-91
2022/03/16 09:50:11;;;;;;;28.50;19.73;;;9.60;99.90;;;;;;4965178;28;20038;-90
2022/03/16 09:52:39;;;;;;;30.55;20.55;;;9.50;99.90;;;;;;4964659;28;20035;-89
2022/03/16 09:55:06;;;;;;;29.50;20.70;;;9.60;99.90;;;;;;4981112;28;20041;-90
2022/03/16 09:57:32;;;;;;;27.75;20.13;;;9.70;99.90;;;;;;4981088;28;20046;-90
2022/03/16 10:00:00;;;;;;;29.00;20.15;;;9.80;99.90;;;;;;4964704;28;20053;-90
2022/03/16 10:02:27;;;;;;;27.67;19.50;;;10.10;99.90;;;;;;4965045;28;20030;-89
2022/03/16 10:04:54;;;;;;;25.95;18.35;;;10.30;99.90;;;;;;4965048;28;20093;-89
2022/03/16 10:07:28;;;;;;;27.45;18.88;;;10.50;99.90;;;;;;4981414;28;20037;-88
2022/03/16 10:15:24;;;;;;;27.63;19.10;;;9.80;99.90;;;;;;4980900;28;20034;-88
2022/03/16 10:17:57;;;;;;;26.58;18.60;;;9.70;99.90;;;;;;4964478;28;20031;-89
2022/03/16 10:20:32;;;;;;;23.88;17.08;;;9.90;99.90;;;;;;4964681;28;20022;-89
2022/03/16 10:23:21;;;;;;;23.33;17.10;;;10.00;99.90;;;;;;4997467;28;20041;-89
2022/03/16 10:25:52;;;;;;;28.50;18.42;;;10.00;99.90;;;;;;4964839;28;20030;-88
2022/03/16 10:28:25;;;;;;;24.77;16.73;;;10.20;99.90;;;;;;4997241;28;20113;-89
2022/03/16 10:30:52;;;;;;;28.17;17.17;;;10.40;99.90;;;;;;4964394;28;20371;-89
2022/03/16 10:33:19;;;;;;;25.65;16.92;;;10.40;99.90;;;;;;4964372;28;20421;-89
2022/03/16 10:36:05;;;;;;;23.77;16.35;;;10.60;99.90;;;;;;4965064;28;20037;-89
2022/03/16 10:38:43;;;;;;;24.17;16.80;;;10.90;99.90;;;;;;4996705;28;20068;-89
2022/03/16 10:46:58;;;;;;;23.70;16.75;;;11.80;99.90;;;;;;4980280;28;20121;-91
2022/03/16 10:49:29;;;;;;;24.60;17.40;;;11.90;99.90;;;;;;4980484;28;20126;-89
2022/03/16 10:52:01;;;;;;;23.02;16.85;;;12.00;99.90;;;;;;4963695;28;20034;-89
2022/03/16 10:54:28;;;;;;;20.85;15.35;;;12.10;99.90;;;;;;4980000;28;20042;-90
2022/03/16 10:56:54;;;;;;;22.20;15.73;;;11.70;99.90;;;;;;4964052;28;20019;-89
2022/03/16 10:59:27;;;;;;;21.38;15.88;;;11.40;99.90;;;;;;4963932;28;20110;-89
2022/03/16 11:01:53;;;;;;;;;;;11.60;99.90;;;;;;4980441;28;20034;-90
2022/03/16 11:04:20;;;;;;;23.38;17.05;;;11.50;99.90;;;;;;4963805;28;20365;-89
2022/03/16 11:06:47;;;;;;;18.73;14.40;;;11.70;99.90;;;;;;4963322;28;20026;-89
2022/03/16 11:09:15;;;;;;;23.70;15.85;;;12.00;99.90;;;;;;4995555;28;20478;-90
2022/03/16 11:14:27;;;;;;;22.27;15.55;;;11.90;99.90;;;;;;4979220;28;20057;-89
2022/03/16 11:16:53;;;;;;;23.75;16.92;;;12.10;99.90;;;;;;4995795;28;20049;-89
2022/03/16 11:19:22;;;;;;;20.17;15.23;;;12.30;99.90;;;;;;4979294;28;20035;-89
2022/03/16 11:22:16;;;;;;;17.08;13.18;;;12.50;99.90;;;;;;4996679;28;20033;-90
2022/03/16 11:24:48;;;;;;;23.50;15.15;;;12.50;99.90;;;;;;4978995;28;20528;-88
2022/03/16 11:27:45;;;;;;;20.02;14.10;;;12.00;99.90;;;;;;4963405;28;20038;-89
2022/03/16 11:30:25;;;;;;;17.52;13.50;;;12.00;99.90;;;;;;4962777;28;20397;-89
2022/03/16 11:32:57;;;;;;;19.77;14.83;;;12.20;99.90;;;;;;4979554;28;20049;-90
2022/03/16 11:35:30;;;;;;;17.33;12.50;;;12.20;99.90;;;;;;4995562;28;20070;-89
2022/03/16 11:38:10;;;;;;;18.15;13.30;;;12.10;99.90;;;;;;4963524;28;20030;-89
2022/03/16 11:40:42;;;;;;;19.63;13.25;;;11.90;99.90;;;;;;4963717;28;20137;-89
2022/03/16 11:43:08;;;;;;;19.13;13.52;;;11.80;99.90;;;;;;4963480;28;20416;-89
2022/03/16 11:45:38;;;;;;;19.42;14.40;;;12.10;99.90;;;;;;4979198;28;20110;-89
2022/03/16 11:48:32;;;;;;;18.90;14.20;;;12.50;99.90;;;;;;4962570;28;20486;-89
2022/03/16 11:51:20;;;;;;;16.23;11.85;;;13.20;99.90;;;;;;4963167;28;20034;-90
2022/03/16 11:53:57;;;;;;;16.80;12.82;;;13.50;99.90;;;;;;4963673;28;20034;-90
2022/03/16 11:56:43;;;;;;;20.00;13.75;;;13.70;99.90;;;;;;4963204;28;20034;-89
2022/03/16 11:59:18;;;;;;;18.95;13.35;;;13.60;99.90;;;;;;4995178;28;20069;-90
2022/03/16 12:02:15;;;;;;;19.17;13.13;;;13.30;99.90;;;;;;4995161;28;20041;-89
2022/03/16 12:04:43;;;;;;;16.67;13.02;;;13.20;99.90;;;;;;4979056;28;20374;-90
2022/03/16 12:07:14;;;;;;;17.80;13.50;;;13.30;99.90;;;;;;4979134;28;20072;-90
2022/03/16 12:09:44;;;;;;;19.40;13.00;;;13.30;99.90;;;;;;4994652;28;20034;-90
2022/03/16 12:15:03;;;;;;;17.95;13.20;;;13.10;99.90;;;;;;4978877;28;20031;-89
2022/03/16 12:17:29;;;;;;;19.02;13.60;;;13.00;99.90;;;;;;4962789;28;20029;-90
2022/03/16 12:20:10;;;;;;;19.55;14.30;;;13.50;99.90;;;;;;4995323;28;20385;-90
2022/03/16 12:22:47;;;;;;;18.80;14.43;;;13.40;99.90;;;;;;4962532;28;20026;-89
2022/03/16 12:25:26;;;;;;;19.33;13.90;;;13.60;99.90;;;;;;4978710;28;20104;-90
2022/03/16 12:30:50;;;;;;;20.63;14.13;;;13.90;99.90;;;;;;4977998;28;20088;-89
2022/03/16 12:33:22;;;;;;;18.98;13.77;;;14.50;99.90;;;;;;4994723;28;20030;-91
2022/03/16 12:35:54;;;;;;;18.35;13.15;;;13.90;99.90;;;;;;4961647;28;20046;-89
2022/03/16 12:38:22;;;;;;;17.98;13.63;;;13.00;99.90;;;;;;4995246;28;20030;-89
2022/03/16 12:43:33;;;;;;;20.00;13.43;;;12.60;99.90;;;;;;4977682;28;20038;-89
2022/03/16 12:46:37;;;;;;;20.52;12.60;;;12.70;99.90;;;;;;4977471;28;20087;-89
2022/03/16 12:49:11;;;;;;;21.60;13.63;;;12.40;99.90;;;;;;4977690;28;20065;-89
2022/03/16 12:51:44;;;;;;;20.58;14.52;;;12.60;99.90;;;;;;4994563;28;20041;-89
2022/03/16 12:54:12;;;;;;;18.85;13.90;;;13.00;99.90;;;;;;4962204;28;20081;-89
2022/03/16 12:56:44;;;;;;;17.67;12.85;;;13.30;99.90;;;;;;4994022;28;20035;-88